Skip Navigation Links Skip Navigation Links

Current Weather

Rochelle Muni Airport-Koritz Field, Rochelle, Ill.

For information only: do not use for flight planning or navigation.
Latest weather
Observation time Tuesday, December 1, 2020 9:15 AM CST
Local time Tuesday, December 1, 2020 9:30 AM CST
Flight conditions Visual Meteorological Conditions
Winds
Wind direction North-Northwest (330°)
Wind speed 10 mph
Visibility 10 mi.
Sky condition
Ceiling unlimited
Sky clear
Temperature 23°F
Dewpoint 18°F
Altimeter 30.11 in.Hg
Derived measurements
Relative humidity 81%
Wind chill 13°F
Density altitude -1841 ft.
Remarks
Fully automated report.
Automated weather observing station with precipitation discriminator.
METAR KRPJ 011515Z AUTO 33009KT 10SM CLR M05/M08 A3011 RMK AO2 T10491077

Settings

Location code

InnerDrive.Weather 4.0.6770.0 Release CLR 4.0.30319.42000
Copyright ©2018 Inner Drive Technology. All rights reserved. Portions Copyright ©1986-2018 David Braverman.

Find weather

Site navigation


Skip Navigation Links

Place info

Page info

PayPal - The safer, easier way to pay online!

Return home.

Copyright ©2020 Inner Drive Technology. Purveyors of fine, hand-crafted computer software. Page printed 2020-12-01T15:30:09 UTC.